sensor_id;sensor_type;location;lat;lon;timestamp;P1;durP1;ratioP1;P2;durP2;ratioP2
16862;SDS011;52193;48.216;-1.698;2023-02-28T00:00:00;4.85;;;4.40;;
16862;SDS011;52193;48.216;-1.698;2023-02-28T00:02:33;4.68;;;4.28;;
16862;SDS011;52193;48.216;-1.698;2023-02-28T00:05:00;4.85;;;4.38;;
16862;SDS011;52193;48.216;-1.698;2023-02-28T00:07:28;5.18;;;4.78;;
16862;SDS011;52193;48.216;-1.698;2023-02-28T00:09:55;5.15;;;4.65;;
16862;SDS011;52193;48.216;-1.698;2023-02-28T00:12:22;5.32;;;4.55;;
16862;SDS011;52193;48.216;-1.698;2023-02-28T00:14:51;4.85;;;4.20;;
16862;SDS011;52193;48.216;-1.698;2023-02-28T00:17:18;5.22;;;4.72;;
16862;SDS011;52193;48.216;-1.698;2023-02-28T00:19:46;4.90;;;4.50;;
16862;SDS011;52193;48.216;-1.698;2023-02-28T00:22:14;5.53;;;5.00;;
16862;SDS011;52193;48.216;-1.698;2023-02-28T00:24:42;4.97;;;4.57;;
16862;SDS011;52193;48.216;-1.698;2023-02-28T00:27:09;4.15;;;3.85;;
16862;SDS011;52193;48.216;-1.698;2023-02-28T00:29:36;5.05;;;4.60;;
16862;SDS011;52193;48.216;-1.698;2023-02-28T00:32:05;5.82;;;4.50;;
16862;SDS011;52193;48.216;-1.698;2023-02-28T00:34:33;4.60;;;4.20;;
16862;SDS011;52193;48.216;-1.698;2023-02-28T00:37:02;5.70;;;4.15;;
16862;SDS011;52193;48.216;-1.698;2023-02-28T00:39:31;4.32;;;3.92;;
16862;SDS011;52193;48.216;-1.698;2023-02-28T00:42:00;4.72;;;4.20;;
16862;SDS011;52193;48.216;-1.698;2023-02-28T00:44:27;4.82;;;4.40;;
16862;SDS011;52193;48.216;-1.698;2023-02-28T00:46:54;4.80;;;4.40;;
16862;SDS011;52193;48.216;-1.698;2023-02-28T00:49:22;4.30;;;3.90;;
16862;SDS011;52193;48.216;-1.698;2023-02-28T00:51:49;5.00;;;4.53;;
16862;SDS011;52193;48.216;-1.698;2023-02-28T00:54:17;5.00;;;4.50;;
16862;SDS011;52193;48.216;-1.698;2023-02-28T00:56:44;4.83;;;4.40;;
16862;SDS011;52193;48.216;-1.698;2023-02-28T00:59:12;5.00;;;4.55;;
16862;SDS011;52193;48.216;-1.698;2023-02-28T01:01:39;4.80;;;4.40;;
16862;SDS011;52193;48.216;-1.698;2023-02-28T01:04:06;4.85;;;4.35;;
16862;SDS011;52193;48.216;-1.698;2023-02-28T01:06:35;4.40;;;4.00;;
16862;SDS011;52193;48.216;-1.698;2023-02-28T01:09:02;4.38;;;4.07;;
16862;SDS011;52193;48.216;-1.698;2023-02-28T01:11:30;5.03;;;4.53;;
16862;SDS011;52193;48.216;-1.698;2023-02-28T01:13:57;5.00;;;4.50;;
16862;SDS011;52193;48.216;-1.698;2023-02-28T01:16:25;4.72;;;4.32;;
16862;SDS011;52193;48.216;-1.698;2023-02-28T01:18:52;5.03;;;4.55;;
16862;SDS011;52193;48.216;-1.698;2023-02-28T01:21:20;4.88;;;4.38;;
16862;SDS011;52193;48.216;-1.698;2023-02-28T01:23:49;5.80;;;4.50;;
16862;SDS011;52193;48.216;-1.698;2023-02-28T01:26:17;4.90;;;4.40;;
16862;SDS011;52193;48.216;-1.698;2023-02-28T01:28:45;4.82;;;4.43;;
16862;SDS011;52193;48.216;-1.698;2023-02-28T01:31:13;4.50;;;4.10;;
16862;SDS011;52193;48.216;-1.698;2023-02-28T01:33:40;5.38;;;4.75;;
16862;SDS011;52193;48.216;-1.698;2023-02-28T01:36:09;5.00;;;4.60;;
16862;SDS011;52193;48.216;-1.698;2023-02-28T01:38:37;4.80;;;4.40;;
16862;SDS011;52193;48.216;-1.698;2023-02-28T01:41:06;4.78;;;4.32;;
16862;SDS011;52193;48.216;-1.698;2023-02-28T01:46:29;4.97;;;4.57;;
16862;SDS011;52193;48.216;-1.698;2023-02-28T01:48:58;4.85;;;4.45;;
16862;SDS011;52193;48.216;-1.698;2023-02-28T01:51:29;4.72;;;4.32;;
16862;SDS011;52193;48.216;-1.698;2023-02-28T01:54:01;4.70;;;4.35;;
16862;SDS011;52193;48.216;-1.698;2023-02-28T01:56:32;4.78;;;4.38;;
16862;SDS011;52193;48.216;-1.698;2023-02-28T01:59:02;4.80;;;4.40;;
16862;SDS011;52193;48.216;-1.698;2023-02-28T02:01:30;5.03;;;4.63;;
16862;SDS011;52193;48.216;-1.698;2023-02-28T02:03:58;5.03;;;4.63;;
16862;SDS011;52193;48.216;-1.698;2023-02-28T02:06:29;5.28;;;4.78;;
16862;SDS011;52193;48.216;-1.698;2023-02-28T02:09:00;5.00;;;4.60;;
16862;SDS011;52193;48.216;-1.698;2023-02-28T02:11:28;4.63;;;4.22;;
16862;SDS011;52193;48.216;-1.698;2023-02-28T02:14:01;4.55;;;4.22;;
16862;SDS011;52193;48.216;-1.698;2023-02-28T02:16:57;4.90;;;4.50;;
16862;SDS011;52193;48.216;-1.698;2023-02-28T02:19:50;4.90;;;4.45;;
16862;SDS011;52193;48.216;-1.698;2023-02-28T02:22:49;5.03;;;4.53;;
16862;SDS011;52193;48.216;-1.698;2023-02-28T02:25:38;5.10;;;4.70;;
16862;SDS011;52193;48.216;-1.698;2023-02-28T02:28:14;5.00;;;4.60;;
16862;SDS011;52193;48.216;-1.698;2023-02-28T02:34:10;4.88;;;4.47;;
16862;SDS011;52193;48.216;-1.698;2023-02-28T02:37:08;4.85;;;4.40;;
16862;SDS011;52193;48.216;-1.698;2023-02-28T02:39:44;5.20;;;4.57;;
16862;SDS011;52193;48.216;-1.698;2023-02-28T02:42:20;4.80;;;4.40;;
16862;SDS011;52193;48.216;-1.698;2023-02-28T02:44:52;5.57;;;5.07;;
16862;SDS011;52193;48.216;-1.698;2023-02-28T02:47:27;5.22;;;4.80;;
16862;SDS011;52193;48.216;-1.698;2023-02-28T02:49:59;5.15;;;4.75;;
16862;SDS011;52193;48.216;-1.698;2023-02-28T02:52:32;5.30;;;4.82;;
16862;SDS011;52193;48.216;-1.698;2023-02-28T02:55:03;4.88;;;4.50;;
16862;SDS011;52193;48.216;-1.698;2023-02-28T02:57:33;5.30;;;4.90;;
16862;SDS011;52193;48.216;-1.698;2023-02-28T03:00:03;4.97;;;4.57;;
16862;SDS011;52193;48.216;-1.698;2023-02-28T03:02:33;5.13;;;4.72;;
16862;SDS011;52193;48.216;-1.698;2023-02-28T03:05:04;5.13;;;4.63;;
16862;SDS011;52193;48.216;-1.698;2023-02-28T03:07:34;5.10;;;4.72;;
16862;SDS011;52193;48.216;-1.698;2023-02-28T03:10:01;5.22;;;4.82;;
16862;SDS011;52193;48.216;-1.698;2023-02-28T03:12:32;5.20;;;4.80;;
16862;SDS011;52193;48.216;-1.698;2023-02-28T03:15:08;5.28;;;4.80;;
16862;SDS011;52193;48.216;-1.698;2023-02-28T03:17:48;5.43;;;5.03;;
16862;SDS011;52193;48.216;-1.698;2023-02-28T03:20:30;5.32;;;4.93;;
16862;SDS011;52193;48.216;-1.698;2023-02-28T03:23:07;5.25;;;4.85;;
16862;SDS011;52193;48.216;-1.698;2023-02-28T03:25:43;5.38;;;4.88;;
16862;SDS011;52193;48.216;-1.698;2023-02-28T03:28:19;6.57;;;5.38;;
16862;SDS011;52193;48.216;-1.698;2023-02-28T03:30:58;5.60;;;5.10;;
16862;SDS011;52193;48.216;-1.698;2023-02-28T03:33:30;5.95;;;5.30;;
16862;SDS011;52193;48.216;-1.698;2023-02-28T03:36:03;6.07;;;5.57;;
16862;SDS011;52193;48.216;-1.698;2023-02-28T03:38:34;5.30;;;4.95;;
16862;SDS011;52193;48.216;-1.698;2023-02-28T03:41:05;6.32;;;5.65;;
16862;SDS011;52193;48.216;-1.698;2023-02-28T03:43:39;5.88;;;5.38;;
16862;SDS011;52193;48.216;-1.698;2023-02-28T03:46:10;6.55;;;5.97;;
16862;SDS011;52193;48.216;-1.698;2023-02-28T03:48:40;5.78;;;5.28;;
16862;SDS011;52193;48.216;-1.698;2023-02-28T03:51:12;6.00;;;5.50;;
16862;SDS011;52193;48.216;-1.698;2023-02-28T03:53:44;6.20;;;5.70;;
16862;SDS011;52193;48.216;-1.698;2023-02-28T03:56:15;6.20;;;5.70;;
16862;SDS011;52193;48.216;-1.698;2023-02-28T03:58:46;6.60;;;6.00;;
16862;SDS011;52193;48.216;-1.698;2023-02-28T04:01:19;6.23;;;5.73;;
16862;SDS011;52193;48.216;-1.698;2023-02-28T04:03:48;6.38;;;5.78;;
16862;SDS011;52193;48.216;-1.698;2023-02-28T04:06:18;5.82;;;5.40;;
16862;SDS011;52193;48.216;-1.698;2023-02-28T04:08:47;5.88;;;5.43;;
16862;SDS011;52193;48.216;-1.698;2023-02-28T04:11:22;6.32;;;5.80;;
16862;SDS011;52193;48.216;-1.698;2023-02-28T04:13:50;6.45;;;5.90;;
16862;SDS011;52193;48.216;-1.698;2023-02-28T04:16:17;6.50;;;5.90;;
16862;SDS011;52193;48.216;-1.698;2023-02-28T04:18:45;6.40;;;5.90;;
16862;SDS011;52193;48.216;-1.698;2023-02-28T04:21:12;6.18;;;5.78;;
16862;SDS011;52193;48.216;-1.698;2023-02-28T04:23:40;6.53;;;5.93;;
16862;SDS011;52193;48.216;-1.698;2023-02-28T04:26:07;6.47;;;6.05;;
16862;SDS011;52193;48.216;-1.698;2023-02-28T04:28:36;6.63;;;6.13;;
16862;SDS011;52193;48.216;-1.698;2023-02-28T04:31:04;6.20;;;5.80;;
16862;SDS011;52193;48.216;-1.698;2023-02-28T04:33:31;6.70;;;6.20;;
16862;SDS011;52193;48.216;-1.698;2023-02-28T04:35:59;6.75;;;6.15;;
16862;SDS011;52193;48.216;-1.698;2023-02-28T04:38:27;6.75;;;6.25;;
16862;SDS011;52193;48.216;-1.698;2023-02-28T04:40:57;6.60;;;6.10;;
16862;SDS011;52193;48.216;-1.698;2023-02-28T04:43:25;6.78;;;6.28;;
16862;SDS011;52193;48.216;-1.698;2023-02-28T04:45:52;6.63;;;6.03;;
16862;SDS011;52193;48.216;-1.698;2023-02-28T04:48:21;7.05;;;6.47;;
16862;SDS011;52193;48.216;-1.698;2023-02-28T04:50:49;6.53;;;6.13;;
16862;SDS011;52193;48.216;-1.698;2023-02-28T04:53:16;7.13;;;6.53;;
16862;SDS011;52193;48.216;-1.698;2023-02-28T04:55:44;7.32;;;6.68;;
16862;SDS011;52193;48.216;-1.698;2023-02-28T04:58:13;7.03;;;6.53;;
16862;SDS011;52193;48.216;-1.698;2023-02-28T05:00:40;7.20;;;6.70;;
16862;SDS011;52193;48.216;-1.698;2023-02-28T05:03:07;7.57;;;7.07;;
16862;SDS011;52193;48.216;-1.698;2023-02-28T05:05:34;7.47;;;6.88;;
16862;SDS011;52193;48.216;-1.698;2023-02-28T05:08:01;7.10;;;6.50;;
16862;SDS011;52193;48.216;-1.698;2023-02-28T05:10:30;7.57;;;6.97;;
16862;SDS011;52193;48.216;-1.698;2023-02-28T05:12:57;7.85;;;7.25;;
16862;SDS011;52193;48.216;-1.698;2023-02-28T05:15:25;7.88;;;7.30;;
16862;SDS011;52193;48.216;-1.698;2023-02-28T05:17:52;8.32;;;7.60;;
16862;SDS011;52193;48.216;-1.698;2023-02-28T05:20:19;7.85;;;7.25;;
16862;SDS011;52193;48.216;-1.698;2023-02-28T05:22:47;8.07;;;7.47;;
16862;SDS011;52193;48.216;-1.698;2023-02-28T05:25:16;7.65;;;7.13;;
16862;SDS011;52193;48.216;-1.698;2023-02-28T05:27:46;7.93;;;7.43;;
16862;SDS011;52193;48.216;-1.698;2023-02-28T05:30:14;7.63;;;7.13;;
16862;SDS011;52193;48.216;-1.698;2023-02-28T05:32:42;7.70;;;7.13;;
16862;SDS011;52193;48.216;-1.698;2023-02-28T05:35:09;7.50;;;6.93;;
16862;SDS011;52193;48.216;-1.698;2023-02-28T05:37:37;7.10;;;6.57;;
16862;SDS011;52193;48.216;-1.698;2023-02-28T05:40:05;7.50;;;7.00;;
16862;SDS011;52193;48.216;-1.698;2023-02-28T05:42:35;7.93;;;7.33;;
16862;SDS011;52193;48.216;-1.698;2023-02-28T05:45:02;7.88;;;7.28;;
16862;SDS011;52193;48.216;-1.698;2023-02-28T05:47:29;8.52;;;7.80;;
16862;SDS011;52193;48.216;-1.698;2023-02-28T05:49:57;7.57;;;7.05;;
16862;SDS011;52193;48.216;-1.698;2023-02-28T05:52:25;8.13;;;7.57;;
16862;SDS011;52193;48.216;-1.698;2023-02-28T05:54:52;8.30;;;7.60;;
16862;SDS011;52193;48.216;-1.698;2023-02-28T05:57:19;8.40;;;7.70;;
16862;SDS011;52193;48.216;-1.698;2023-02-28T05:59:46;8.13;;;7.53;;
16862;SDS011;52193;48.216;-1.698;2023-02-28T06:02:13;8.43;;;7.83;;
16862;SDS011;52193;48.216;-1.698;2023-02-28T06:04:42;8.15;;;7.63;;
16862;SDS011;52193;48.216;-1.698;2023-02-28T06:07:11;7.90;;;7.40;;
16862;SDS011;52193;48.216;-1.698;2023-02-28T06:09:38;8.43;;;7.82;;
16862;SDS011;52193;48.216;-1.698;2023-02-28T06:12:05;8.40;;;7.80;;
16862;SDS011;52193;48.216;-1.698;2023-02-28T06:14:34;8.05;;;7.53;;
16862;SDS011;52193;48.216;-1.698;2023-02-28T06:17:01;8.38;;;7.78;;
16862;SDS011;52193;48.216;-1.698;2023-02-28T06:19:29;8.60;;;8.00;;
16862;SDS011;52193;48.216;-1.698;2023-02-28T06:21:56;8.70;;;8.10;;
16862;SDS011;52193;48.216;-1.698;2023-02-28T06:24:26;8.98;;;8.38;;
16862;SDS011;52193;48.216;-1.698;2023-02-28T06:26:54;8.82;;;8.23;;
16862;SDS011;52193;48.216;-1.698;2023-02-28T06:29:21;9.53;;;8.83;;
16862;SDS011;52193;48.216;-1.698;2023-02-28T06:31:48;8.73;;;8.13;;
16862;SDS011;52193;48.216;-1.698;2023-02-28T06:34:15;8.73;;;8.02;;
16862;SDS011;52193;48.216;-1.698;2023-02-28T06:36:43;9.13;;;8.52;;
16862;SDS011;52193;48.216;-1.698;2023-02-28T06:39:10;9.97;;;9.27;;
16862;SDS011;52193;48.216;-1.698;2023-02-28T06:41:38;10.10;;;9.40;;
16862;SDS011;52193;48.216;-1.698;2023-02-28T06:44:05;10.60;;;9.90;;
16862;SDS011;52193;48.216;-1.698;2023-02-28T06:46:38;10.67;;;9.97;;
16862;SDS011;52193;48.216;-1.698;2023-02-28T06:49:05;11.25;;;10.35;;
16862;SDS011;52193;48.216;-1.698;2023-02-28T06:51:35;11.20;;;10.40;;
16862;SDS011;52193;48.216;-1.698;2023-02-28T06:54:03;10.50;;;9.60;;
16862;SDS011;52193;48.216;-1.698;2023-02-28T06:56:30;10.43;;;9.73;;
16862;SDS011;52193;48.216;-1.698;2023-02-28T06:58:59;10.10;;;9.40;;
16862;SDS011;52193;48.216;-1.698;2023-02-28T07:01:26;11.00;;;10.10;;
16862;SDS011;52193;48.216;-1.698;2023-02-28T07:03:54;11.50;;;10.70;;
16862;SDS011;52193;48.216;-1.698;2023-02-28T07:06:21;10.25;;;9.60;;
16862;SDS011;52193;48.216;-1.698;2023-02-28T07:08:49;10.48;;;9.77;;
16862;SDS011;52193;48.216;-1.698;2023-02-28T07:11:17;10.50;;;9.80;;
16862;SDS011;52193;48.216;-1.698;2023-02-28T07:13:44;10.70;;;10.00;;
16862;SDS011;52193;48.216;-1.698;2023-02-28T07:16:13;10.20;;;9.60;;
16862;SDS011;52193;48.216;-1.698;2023-02-28T07:18:41;10.68;;;9.98;;
16862;SDS011;52193;48.216;-1.698;2023-02-28T07:21:08;11.15;;;10.45;;
16862;SDS011;52193;48.216;-1.698;2023-02-28T07:23:36;11.18;;;10.38;;
16862;SDS011;52193;48.216;-1.698;2023-02-28T07:26:04;10.93;;;10.30;;
16862;SDS011;52193;48.216;-1.698;2023-02-28T07:28:31;10.95;;;10.20;;
16862;SDS011;52193;48.216;-1.698;2023-02-28T07:31:02;11.65;;;10.85;;
16862;SDS011;52193;48.216;-1.698;2023-02-28T07:33:32;11.38;;;10.57;;
16862;SDS011;52193;48.216;-1.698;2023-02-28T07:36:00;11.50;;;10.80;;
16862;SDS011;52193;48.216;-1.698;2023-02-28T07:38:27;12.18;;;11.27;;
16862;SDS011;52193;48.216;-1.698;2023-02-28T07:40:54;13.40;;;12.40;;
16862;SDS011;52193;48.216;-1.698;2023-02-28T07:43:21;12.80;;;11.82;;
16862;SDS011;52193;48.216;-1.698;2023-02-28T07:45:48;12.23;;;11.43;;
16862;SDS011;52193;48.216;-1.698;2023-02-28T07:48:15;17.98;;;12.15;;
16862;SDS011;52193;48.216;-1.698;2023-02-28T07:50:43;29.58;;;11.77;;
16862;SDS011;52193;48.216;-1.698;2023-02-28T07:53:13;12.77;;;11.00;;
16862;SDS011;52193;48.216;-1.698;2023-02-28T07:55:40;13.65;;;11.18;;
16862;SDS011;52193;48.216;-1.698;2023-02-28T07:58:07;13.75;;;10.95;;
16862;SDS011;52193;48.216;-1.698;2023-02-28T08:00:34;15.98;;;11.30;;
16862;SDS011;52193;48.216;-1.698;2023-02-28T08:03:01;18.67;;;12.35;;
16862;SDS011;52193;48.216;-1.698;2023-02-28T08:05:28;12.13;;;10.25;;
16862;SDS011;52193;48.216;-1.698;2023-02-28T08:07:56;11.73;;;9.90;;
16862;SDS011;52193;48.216;-1.698;2023-02-28T08:10:23;13.85;;;10.65;;
16862;SDS011;52193;48.216;-1.698;2023-02-28T08:12:50;12.60;;;10.80;;
16862;SDS011;52193;48.216;-1.698;2023-02-28T08:15:17;15.25;;;10.75;;
16862;SDS011;52193;48.216;-1.698;2023-02-28T08:17:44;15.55;;;13.10;;
16862;SDS011;52193;48.216;-1.698;2023-02-28T08:20:11;16.10;;;12.25;;
16862;SDS011;52193;48.216;-1.698;2023-02-28T08:22:38;13.88;;;12.48;;
16862;SDS011;52193;48.216;-1.698;2023-02-28T08:25:08;13.88;;;12.65;;
16862;SDS011;52193;48.216;-1.698;2023-02-28T08:27:36;12.18;;;11.38;;
16862;SDS011;52193;48.216;-1.698;2023-02-28T08:30:03;12.75;;;11.95;;
16862;SDS011;52193;48.216;-1.698;2023-02-28T08:32:31;14.27;;;12.77;;
16862;SDS011;52193;48.216;-1.698;2023-02-28T08:34:59;13.02;;;11.90;;
16862;SDS011;52193;48.216;-1.698;2023-02-28T08:37:26;13.93;;;12.80;;
16862;SDS011;52193;48.216;-1.698;2023-02-28T08:39:53;14.90;;;13.57;;
16862;SDS011;52193;48.216;-1.698;2023-02-28T08:42:22;13.93;;;13.02;;
16862;SDS011;52193;48.216;-1.698;2023-02-28T08:44:49;14.45;;;13.02;;
16862;SDS011;52193;48.216;-1.698;2023-02-28T08:47:16;14.38;;;13.05;;
16862;SDS011;52193;48.216;-1.698;2023-02-28T08:49:43;14.63;;;13.32;;
16862;SDS011;52193;48.216;-1.698;2023-02-28T08:52:11;13.57;;;12.45;;
16862;SDS011;52193;48.216;-1.698;2023-02-28T08:54:38;15.85;;;14.15;;
16862;SDS011;52193;48.216;-1.698;2023-02-28T08:57:05;14.27;;;13.18;;
16862;SDS011;52193;48.216;-1.698;2023-02-28T08:59:33;16.50;;;15.23;;
16862;SDS011;52193;48.216;-1.698;2023-02-28T09:02:00;15.02;;;13.98;;
16862;SDS011;52193;48.216;-1.698;2023-02-28T09:04:27;15.68;;;14.55;;
16862;SDS011;52193;48.216;-1.698;2023-02-28T09:06:56;14.80;;;13.70;;
16862;SDS011;52193;48.216;-1.698;2023-02-28T09:09:23;14.07;;;12.95;;
16862;SDS011;52193;48.216;-1.698;2023-02-28T09:11:50;14.20;;;13.10;;
16862;SDS011;52193;48.216;-1.698;2023-02-28T09:14:17;14.07;;;13.07;;
16862;SDS011;52193;48.216;-1.698;2023-02-28T09:16:46;13.70;;;12.80;;
16862;SDS011;52193;48.216;-1.698;2023-02-28T09:19:13;15.63;;;14.32;;
16862;SDS011;52193;48.216;-1.698;2023-02-28T09:21:40;13.70;;;12.70;;
16862;SDS011;52193;48.216;-1.698;2023-02-28T09:24:07;14.48;;;13.32;;
16862;SDS011;52193;48.216;-1.698;2023-02-28T09:26:36;12.85;;;12.02;;
16862;SDS011;52193;48.216;-1.698;2023-02-28T09:29:04;12.80;;;11.90;;
16862;SDS011;52193;48.216;-1.698;2023-02-28T09:31:31;11.38;;;10.68;;
16862;SDS011;52193;48.216;-1.698;2023-02-28T09:34:00;11.48;;;10.65;;
16862;SDS011;52193;48.216;-1.698;2023-02-28T09:36:27;13.20;;;12.30;;
16862;SDS011;52193;48.216;-1.698;2023-02-28T09:38:55;11.77;;;10.88;;
16862;SDS011;52193;48.216;-1.698;2023-02-28T09:41:22;11.85;;;11.00;;
16862;SDS011;52193;48.216;-1.698;2023-02-28T09:43:53;11.52;;;10.70;;
16862;SDS011;52193;48.216;-1.698;2023-02-28T09:46:27;11.32;;;10.52;;
16862;SDS011;52193;48.216;-1.698;2023-02-28T09:48:59;10.23;;;9.52;;
16862;SDS011;52193;48.216;-1.698;2023-02-28T09:51:33;9.73;;;9.13;;
16862;SDS011;52193;48.216;-1.698;2023-02-28T09:54:08;10.77;;;9.75;;
16862;SDS011;52193;48.216;-1.698;2023-02-28T09:56:43;9.95;;;9.25;;
16862;SDS011;52193;48.216;-1.698;2023-02-28T09:59:18;9.40;;;8.80;;
16862;SDS011;52193;48.216;-1.698;2023-02-28T10:01:59;9.15;;;8.55;;
16862;SDS011;52193;48.216;-1.698;2023-02-28T10:04:37;9.05;;;8.35;;
16862;SDS011;52193;48.216;-1.698;2023-02-28T10:07:16;7.85;;;7.35;;
16862;SDS011;52193;48.216;-1.698;2023-02-28T10:09:50;7.18;;;6.70;;
16862;SDS011;52193;48.216;-1.698;2023-02-28T10:12:18;7.03;;;6.63;;
16862;SDS011;52193;48.216;-1.698;2023-02-28T10:14:47;7.22;;;6.72;;
16862;SDS011;52193;48.216;-1.698;2023-02-28T10:17:18;7.50;;;6.95;;
16862;SDS011;52193;48.216;-1.698;2023-02-28T10:19:52;7.38;;;6.88;;
16862;SDS011;52193;48.216;-1.698;2023-02-28T10:22:27;7.63;;;7.03;;
16862;SDS011;52193;48.216;-1.698;2023-02-28T10:25:00;8.30;;;7.68;;
16862;SDS011;52193;48.216;-1.698;2023-02-28T10:27:31;7.72;;;7.13;;
16862;SDS011;52193;48.216;-1.698;2023-02-28T10:29:59;7.30;;;6.80;;
16862;SDS011;52193;48.216;-1.698;2023-02-28T10:32:27;8.00;;;7.40;;
16862;SDS011;52193;48.216;-1.698;2023-02-28T10:34:59;7.40;;;6.90;;
16862;SDS011;52193;48.216;-1.698;2023-02-28T10:37:27;7.25;;;6.75;;
16862;SDS011;52193;48.216;-1.698;2023-02-28T10:39:54;7.18;;;6.68;;
16862;SDS011;52193;48.216;-1.698;2023-02-28T10:42:22;7.07;;;6.57;;
16862;SDS011;52193;48.216;-1.698;2023-02-28T10:45:10;7.40;;;6.90;;
16862;SDS011;52193;48.216;-1.698;2023-02-28T10:47:41;7.82;;;7.32;;
16862;SDS011;52193;48.216;-1.698;2023-02-28T10:53:16;7.78;;;7.28;;
16862;SDS011;52193;48.216;-1.698;2023-02-28T10:55:56;8.02;;;7.53;;
16862;SDS011;52193;48.216;-1.698;2023-02-28T10:58:26;8.25;;;7.65;;
16862;SDS011;52193;48.216;-1.698;2023-02-28T11:00:55;7.22;;;6.82;;
16862;SDS011;52193;48.216;-1.698;2023-02-28T11:03:23;7.57;;;7.07;;
16862;SDS011;52193;48.216;-1.698;2023-02-28T11:05:56;7.18;;;6.78;;
16862;SDS011;52193;48.216;-1.698;2023-02-28T11:08:24;8.05;;;7.55;;
16862;SDS011;52193;48.216;-1.698;2023-02-28T11:10:53;7.80;;;7.30;;
16862;SDS011;52193;48.216;-1.698;2023-02-28T11:13:24;8.00;;;7.40;;
16862;SDS011;52193;48.216;-1.698;2023-02-28T11:15:55;8.23;;;7.72;;
16862;SDS011;52193;48.216;-1.698;2023-02-28T11:18:24;9.85;;;9.05;;
16862;SDS011;52193;48.216;-1.698;2023-02-28T11:20:57;8.52;;;7.88;;
16862;SDS011;52193;48.216;-1.698;2023-02-28T11:23:27;8.57;;;7.97;;
16862;SDS011;52193;48.216;-1.698;2023-02-28T11:25:58;7.28;;;6.78;;
16862;SDS011;52193;48.216;-1.698;2023-02-28T11:28:28;7.50;;;7.00;;
16862;SDS011;52193;48.216;-1.698;2023-02-28T11:31:01;6.13;;;5.72;;
16862;SDS011;52193;48.216;-1.698;2023-02-28T11:33:32;4.50;;;4.20;;
16862;SDS011;52193;48.216;-1.698;2023-02-28T11:36:11;5.07;;;4.68;;
16862;SDS011;52193;48.216;-1.698;2023-02-28T11:38:40;4.15;;;3.78;;
16862;SDS011;52193;48.216;-1.698;2023-02-28T11:41:18;3.97;;;3.78;;
16862;SDS011;52193;48.216;-1.698;2023-02-28T11:44:03;5.07;;;4.68;;
16862;SDS011;52193;48.216;-1.698;2023-02-28T11:46:40;4.25;;;3.97;;
16862;SDS011;52193;48.216;-1.698;2023-02-28T11:49:26;5.60;;;5.20;;
16862;SDS011;52193;48.216;-1.698;2023-02-28T11:52:04;4.65;;;4.35;;
16862;SDS011;52193;48.216;-1.698;2023-02-28T11:54:47;4.10;;;3.88;;
16862;SDS011;52193;48.216;-1.698;2023-02-28T11:57:24;4.22;;;3.90;;
16862;SDS011;52193;48.216;-1.698;2023-02-28T12:00:11;3.90;;;3.60;;
16862;SDS011;52193;48.216;-1.698;2023-02-28T12:02:57;4.60;;;4.30;;
16862;SDS011;52193;48.216;-1.698;2023-02-28T12:05:30;4.00;;;3.67;;
16862;SDS011;52193;48.216;-1.698;2023-02-28T12:08:06;6.03;;;5.22;;
16862;SDS011;52193;48.216;-1.698;2023-02-28T12:10:42;4.85;;;4.55;;
16862;SDS011;52193;48.216;-1.698;2023-02-28T12:13:20;4.50;;;4.20;;
16862;SDS011;52193;48.216;-1.698;2023-02-28T12:18:57;4.15;;;3.85;;
16862;SDS011;52193;48.216;-1.698;2023-02-28T12:21:35;3.65;;;3.35;;
16862;SDS011;52193;48.216;-1.698;2023-02-28T12:24:24;4.10;;;3.88;;
16862;SDS011;52193;48.216;-1.698;2023-02-28T12:26:57;5.85;;;5.45;;
16862;SDS011;52193;48.216;-1.698;2023-02-28T12:29:29;6.88;;;6.28;;
16862;SDS011;52193;48.216;-1.698;2023-02-28T12:32:01;5.93;;;5.43;;
16862;SDS011;52193;48.216;-1.698;2023-02-28T12:34:36;5.78;;;5.22;;
16862;SDS011;52193;48.216;-1.698;2023-02-28T12:37:06;6.70;;;6.13;;
16862;SDS011;52193;48.216;-1.698;2023-02-28T12:39:38;5.15;;;4.65;;
16862;SDS011;52193;48.216;-1.698;2023-02-28T12:42:10;8.00;;;7.20;;
16862;SDS011;52193;48.216;-1.698;2023-02-28T12:44:40;4.72;;;4.35;;
16862;SDS011;52193;48.216;-1.698;2023-02-28T12:47:13;4.05;;;3.80;;
16862;SDS011;52193;48.216;-1.698;2023-02-28T12:49:43;4.00;;;3.70;;
16862;SDS011;52193;48.216;-1.698;2023-02-28T12:52:16;3.90;;;3.47;;
16862;SDS011;52193;48.216;-1.698;2023-02-28T12:54:49;4.00;;;3.70;;
16862;SDS011;52193;48.216;-1.698;2023-02-28T12:57:22;4.05;;;3.78;;
16862;SDS011;52193;48.216;-1.698;2023-02-28T12:59:59;3.63;;;3.42;;
16862;SDS011;52193;48.216;-1.698;2023-02-28T13:02:43;3.60;;;3.35;;
16862;SDS011;52193;48.216;-1.698;2023-02-28T13:05:46;3.38;;;2.90;;
16862;SDS011;52193;48.216;-1.698;2023-02-28T13:14:27;3.90;;;3.70;;
16862;SDS011;52193;48.216;-1.698;2023-02-28T13:17:02;3.75;;;3.35;;
16862;SDS011;52193;48.216;-1.698;2023-02-28T13:19:37;4.22;;;3.92;;
16862;SDS011;52193;48.216;-1.698;2023-02-28T13:22:05;4.35;;;3.95;;
16862;SDS011;52193;48.216;-1.698;2023-02-28T13:24:44;3.50;;;3.30;;
16862;SDS011;52193;48.216;-1.698;2023-02-28T13:27:21;3.85;;;3.60;;
16862;SDS011;52193;48.216;-1.698;2023-02-28T13:29:52;4.70;;;3.92;;
16862;SDS011;52193;48.216;-1.698;2023-02-28T13:44:06;3.67;;;3.45;;
16862;SDS011;52193;48.216;-1.698;2023-02-28T13:46:38;3.13;;;2.92;;
16862;SDS011;52193;48.216;-1.698;2023-02-28T13:49:41;4.80;;;4.47;;
16862;SDS011;52193;48.216;-1.698;2023-02-28T13:52:10;3.10;;;2.90;;
16862;SDS011;52193;48.216;-1.698;2023-02-28T13:54:47;3.90;;;3.60;;
16862;SDS011;52193;48.216;-1.698;2023-02-28T13:57:29;3.33;;;3.10;;
16862;SDS011;52193;48.216;-1.698;2023-02-28T14:00:15;2.90;;;2.80;;
16862;SDS011;52193;48.216;-1.698;2023-02-28T14:02:54;3.00;;;2.80;;
16862;SDS011;52193;48.216;-1.698;2023-02-28T14:05:35;3.30;;;3.10;;
16862;SDS011;52193;48.216;-1.698;2023-02-28T14:08:04;3.20;;;3.00;;
16862;SDS011;52193;48.216;-1.698;2023-02-28T14:10:40;3.63;;;2.97;;
16862;SDS011;52193;48.216;-1.698;2023-02-28T14:13:14;3.55;;;3.25;;
16862;SDS011;52193;48.216;-1.698;2023-02-28T14:16:09;3.90;;;3.60;;
16862;SDS011;52193;48.216;-1.698;2023-02-28T14:18:40;3.65;;;3.35;;
16862;SDS011;52193;48.216;-1.698;2023-02-28T14:21:10;4.68;;;4.38;;
16862;SDS011;52193;48.216;-1.698;2023-02-28T14:26:57;4.80;;;4.40;;
16862;SDS011;52193;48.216;-1.698;2023-02-28T14:29:59;5.53;;;5.13;;
16862;SDS011;52193;48.216;-1.698;2023-02-28T14:32:59;4.90;;;4.60;;
16862;SDS011;52193;48.216;-1.698;2023-02-28T14:36:00;5.43;;;5.03;;
16862;SDS011;52193;48.216;-1.698;2023-02-28T14:38:35;6.28;;;5.88;;
16862;SDS011;52193;48.216;-1.698;2023-02-28T14:41:12;5.80;;;5.28;;
16862;SDS011;52193;48.216;-1.698;2023-02-28T14:43:48;5.45;;;5.10;;
16862;SDS011;52193;48.216;-1.698;2023-02-28T14:46:22;5.60;;;5.20;;
16862;SDS011;52193;48.216;-1.698;2023-02-28T14:48:53;9.30;;;8.60;;
16862;SDS011;52193;48.216;-1.698;2023-02-28T14:51:21;6.38;;;5.97;;
16862;SDS011;52193;48.216;-1.698;2023-02-28T14:53:50;5.97;;;5.57;;
16862;SDS011;52193;48.216;-1.698;2023-02-28T14:56:19;6.07;;;5.55;;
16862;SDS011;52193;48.216;-1.698;2023-02-28T14:58:52;5.57;;;5.18;;
16862;SDS011;52193;48.216;-1.698;2023-02-28T15:01:21;5.57;;;4.90;;
16862;SDS011;52193;48.216;-1.698;2023-02-28T15:03:57;5.30;;;5.00;;
16862;SDS011;52193;48.216;-1.698;2023-02-28T15:06:26;4.80;;;4.40;;
16862;SDS011;52193;48.216;-1.698;2023-02-28T15:09:14;4.90;;;4.60;;
16862;SDS011;52193;48.216;-1.698;2023-02-28T15:11:41;4.78;;;4.47;;
16862;SDS011;52193;48.216;-1.698;2023-02-28T15:14:17;5.00;;;4.60;;
16862;SDS011;52193;48.216;-1.698;2023-02-28T15:16:48;5.07;;;4.68;;
16862;SDS011;52193;48.216;-1.698;2023-02-28T15:19:19;5.72;;;5.32;;
16862;SDS011;52193;48.216;-1.698;2023-02-28T15:21:50;6.15;;;5.75;;
16862;SDS011;52193;48.216;-1.698;2023-02-28T15:24:20;5.93;;;5.53;;